Time;durP1;ratioP1;P1;durP2;ratioP2;P2;SDS_P1;SDS_P2;PMS_P1;PMS_P2;Temp;Humidity;BMP_temperature;BMP_pressure;BME280_temperature;BME280_humidity;BME280_pressure;Samples;Min_cycle;Max_cycle;Signal;HPM_P1;HPM_P2
2024/03/15 00:00:14;;;;;;;7.57;3.37;;;8.60;99.90;;;9.46;100.00;97556.25;5001069;28;20497;-76
2024/03/15 00:02:45;;;;;;;5.03;3.47;;;8.60;99.90;;;9.49;100.00;97550.66;4998443;28;20490;-76
2024/03/15 00:05:13;;;;;;;5.20;3.50;;;8.70;99.90;;;9.51;100.00;97551.25;4995373;28;20529;-76
2024/03/15 00:07:42;;;;;;;6.87;3.77;;;8.70;99.90;;;9.48;100.00;97559.47;5000796;28;20486;-76
2024/03/15 00:10:10;;;;;;;9.03;3.90;;;8.60;99.90;;;9.51;100.00;97553.09;5012220;28;20470;-75
2024/03/15 00:12:39;;;;;;;5.40;3.53;;;8.70;99.90;;;9.43;100.00;97554.03;5011452;28;20518;-76
2024/03/15 00:15:09;;;;;;;8.10;3.67;;;8.50;99.90;;;9.37;100.00;97551.38;5011096;28;20463;-76
2024/03/15 00:17:38;;;;;;;4.07;3.10;;;8.50;99.90;;;9.35;100.00;97559.41;5001034;28;20464;-76
2024/03/15 00:20:07;;;;;;;5.97;3.80;;;8.50;99.90;;;9.34;100.00;97562.19;4999773;28;20487;-76
2024/03/15 00:22:36;;;;;;;6.20;3.50;;;8.50;99.90;;;9.37;100.00;97556.59;4998483;28;20509;-76
2024/03/15 00:25:07;;;;;;;4.30;3.07;;;8.50;99.90;;;9.42;100.00;97560.25;4997235;28;20469;-76
2024/03/15 00:27:35;;;;;;;9.63;3.40;;;8.60;99.90;;;9.47;100.00;97559.69;5015215;28;20459;-76
2024/03/15 00:30:05;;;;;;;5.77;3.40;;;8.60;99.90;;;9.43;100.00;97558.44;5017868;28;20542;-76
2024/03/15 00:32:34;;;;;;;10.97;3.33;;;8.60;99.90;;;9.42;100.00;97559.44;5016821;28;20474;-76
2024/03/15 00:35:02;;;;;;;11.43;3.10;;;8.60;99.90;;;9.41;100.00;97558.63;5014570;28;20984;-76
2024/03/15 00:37:31;;;;;;;5.57;3.03;;;8.60;99.90;;;9.45;100.00;97556.44;4996662;28;20568;-76
2024/03/15 00:39:59;;;;;;;8.80;2.57;;;8.60;99.90;;;9.46;100.00;97561.47;5002662;28;20478;-76
2024/03/15 00:42:28;;;;;;;5.73;2.73;;;8.60;99.90;;;9.43;100.00;97556.66;5015355;28;20852;-76
2024/03/15 00:44:57;;;;;;;4.17;3.10;;;8.60;99.90;;;9.34;100.00;97563.00;4998109;28;20552;-76
2024/03/15 00:47:26;;;;;;;9.47;2.73;;;8.50;99.90;;;9.34;100.00;97562.19;5000348;28;20470;-76
2024/03/15 00:49:54;;;;;;;4.27;2.70;;;8.50;99.90;;;9.37;100.00;97552.16;5012052;28;20526;-76
2024/03/15 00:52:23;;;;;;;5.13;2.57;;;8.50;99.90;;;9.33;100.00;97555.38;5012679;28;20467;-76
2024/03/15 00:54:51;;;;;;;5.00;2.67;;;8.50;99.90;;;9.27;100.00;97551.72;4998150;28;20470;-76
2024/03/15 00:57:20;;;;;;;5.20;3.07;;;8.40;99.90;;;9.24;100.00;97549.47;5000445;28;20482;-76
2024/03/15 00:59:48;;;;;;;5.30;3.17;;;8.40;99.90;;;9.27;100.00;97543.88;5000493;28;20477;-76
2024/03/15 01:02:17;;;;;;;7.30;2.30;;;8.40;99.90;;;9.26;100.00;97547.50;5006004;28;20498;-76
2024/03/15 01:04:46;;;;;;;6.73;2.50;;;8.40;99.90;;;9.29;100.00;97534.06;4984129;28;20965;-76
2024/03/15 01:07:14;;;;;;;5.90;3.60;;;8.40;99.90;;;9.31;100.00;97537.28;5021009;28;20462;-76
2024/03/15 01:09:43;;;;;;;10.77;5.10;;;8.40;99.90;;;9.32;100.00;97531.09;4975554;28;20503;-75
2024/03/15 01:12:13;;;;;;;5.20;2.57;;;8.40;99.90;;;9.35;100.00;97530.69;5016560;28;20950;-76
2024/03/15 01:14:42;;;;;;;7.70;3.40;;;8.50;99.90;;;9.33;100.00;97535.31;5005688;28;20981;-76
2024/03/15 01:17:10;;;;;;;4.57;2.50;;;8.40;99.90;;;9.22;100.00;97529.81;5006079;28;20467;-75
2024/03/15 01:19:39;;;;;;;8.40;2.77;;;8.30;99.90;;;9.17;100.00;97525.16;5004643;28;20625;-76
2024/03/15 01:22:07;;;;;;;3.77;2.60;;;8.30;99.90;;;9.18;100.00;97521.56;4990592;28;20490;-76
2024/03/15 01:24:36;;;;;;;4.00;2.50;;;8.30;99.90;;;9.11;100.00;97518.09;5003253;28;20860;-76
2024/03/15 01:27:05;;;;;;;5.70;3.00;;;8.20;99.90;;;9.05;100.00;97519.69;4990371;28;20465;-76
2024/03/15 01:29:34;;;;;;;7.17;2.60;;;8.20;99.90;;;9.03;100.00;97523.44;5018758;28;21003;-76
2024/03/15 01:32:02;;;;;;;3.30;2.33;;;8.20;99.90;;;9.04;100.00;97525.06;5019136;28;20466;-76
2024/03/15 01:34:32;;;;;;;4.70;2.63;;;8.20;99.90;;;9.06;100.00;97512.63;5016305;28;20467;-75
2024/03/15 01:37:00;;;;;;;4.57;2.37;;;8.20;99.90;;;9.10;100.00;97519.91;4990447;28;20562;-75
2024/03/15 01:39:29;;;;;;;5.97;3.30;;;8.20;99.90;;;9.05;100.00;97518.88;5016456;28;20449;-75
2024/03/15 01:41:58;;;;;;;4.60;2.80;;;8.20;99.90;;;8.85;100.00;97517.94;5001066;28;20497;-76
2024/03/15 01:44:27;;;;;;;4.20;2.30;;;7.90;99.90;;;8.93;100.00;97517.75;5001456;28;20458;-76
2024/03/15 01:46:56;;;;;;;3.90;2.83;;;8.00;99.90;;;8.91;100.00;97524.97;5018157;28;21104;-76
2024/03/15 01:49:25;;;;;;;3.60;2.70;;;8.10;99.90;;;8.86;100.00;97514.31;5013124;28;20466;-76
2024/03/15 01:51:54;;;;;;;3.23;2.70;;;8.00;99.90;;;8.84;100.00;97513.69;5019756;28;20467;-75
2024/03/15 01:54:22;;;;;;;3.63;2.60;;;7.90;99.90;;;8.81;100.00;97508.88;5017445;28;21006;-76
2024/03/15 01:56:51;;;;;;;4.27;2.47;;;7.90;99.90;;;8.85;100.00;97507.50;5018942;28;21479;-75
2024/03/15 01:59:20;;;;;;;3.27;2.60;;;7.90;99.90;;;8.82;100.00;97505.25;4999875;28;20968;-76
2024/03/15 02:01:48;;;;;;;8.23;2.53;;;7.90;99.90;;;8.75;100.00;97509.59;5012860;28;21074;-76
2024/03/15 02:04:17;;;;;;;4.27;2.80;;;7.90;99.90;;;8.68;100.00;97519.19;5012409;28;20471;-75
2024/03/15 02:06:45;;;;;;;4.37;2.70;;;7.80;99.90;;;8.56;100.00;97511.88;5015280;28;20831;-76
2024/03/15 02:09:14;;;;;;;3.57;2.77;;;7.70;99.90;;;8.59;100.00;97511.50;5001547;28;20468;-76
2024/03/15 02:11:42;;;;;;;3.63;2.57;;;7.70;99.90;;;8.56;100.00;97505.84;4997916;28;20479;-76
2024/03/15 02:14:11;;;;;;;3.20;2.50;;;7.70;99.90;;;8.45;100.00;97517.56;5002241;28;20472;-76
2024/03/15 02:16:40;;;;;;;6.90;4.33;;;7.60;99.90;;;8.45;100.00;97508.94;5016578;28;20444;-75
2024/03/15 02:19:09;;;;;;;3.47;2.73;;;7.60;99.90;;;8.53;100.00;97501.00;5003929;28;20552;-76
2024/03/15 02:21:38;;;;;;;3.77;2.83;;;7.70;99.90;;;8.53;100.00;97506.22;5017163;28;20479;-76
2024/03/15 02:24:07;;;;;;;5.70;2.60;;;7.70;99.90;;;8.57;100.00;97505.66;4985861;28;20552;-76
2024/03/15 02:26:36;;;;;;;4.90;2.73;;;7.70;99.90;;;8.55;100.00;97509.44;5001264;28;20556;-76
2024/03/15 02:29:05;;;;;;;7.90;2.83;;;7.70;99.90;;;8.42;100.00;97525.78;5016855;28;20462;-76
2024/03/15 02:31:36;;;;;;;4.93;2.80;;;7.50;99.90;;;8.38;100.00;97526.31;5000319;28;20983;-75
2024/03/15 02:34:05;;;;;;;6.73;3.27;;;7.40;99.90;;;8.33;100.00;97526.88;5003299;28;20517;-75
2024/03/15 02:36:33;;;;;;;17.40;3.03;;;7.40;99.90;;;8.28;100.00;97524.03;5013767;28;20904;-76
2024/03/15 02:39:02;;;;;;;5.80;2.37;;;7.40;99.90;;;8.35;100.00;97519.69;4988057;28;20464;-76
2024/03/15 02:41:31;;;;;;;6.47;3.00;;;7.40;99.90;;;8.26;100.00;97530.38;5004923;28;20460;-76
2024/03/15 02:44:00;;;;;;;6.60;3.37;;;7.30;99.90;;;8.20;100.00;97529.31;5015908;28;21093;-76
2024/03/15 02:46:29;;;;;;;8.17;2.97;;;7.30;99.90;;;8.18;100.00;97533.91;5002825;28;21255;-80
2024/03/15 02:49:00;;;;;;;4.07;2.40;;;7.40;99.90;;;8.17;100.00;97532.28;4997933;28;20458;-75
2024/03/15 02:51:28;;;;;;;4.50;2.90;;;7.30;99.90;;;8.18;100.00;97536.50;5013673;28;20736;-75
2024/03/15 02:53:57;;;;;;;4.57;2.90;;;7.40;99.90;;;8.20;100.00;97533.72;5014751;28;20979;-76
2024/03/15 02:56:26;;;;;;;3.00;2.70;;;7.30;99.90;;;8.17;100.00;97534.09;5001384;28;20479;-76
2024/03/15 02:58:54;;;;;;;3.80;2.30;;;7.30;99.90;;;8.12;100.00;97539.88;5002686;28;20473;-76
2024/03/15 03:01:25;;;;;;;8.50;2.90;;;7.20;99.90;;;8.07;100.00;97547.41;4987857;28;20734;-76
2024/03/15 03:03:53;;;;;;;8.27;3.30;;;7.20;99.90;;;8.02;100.00;97544.53;5018841;28;20486;-75
2024/03/15 03:06:23;;;;;;;3.77;2.90;;;7.20;99.90;;;7.98;100.00;97558.94;5002466;28;20459;-75
2024/03/15 03:08:52;;;;;;;6.10;3.00;;;7.10;99.90;;;8.01;100.00;97548.16;4986537;28;20473;-75
2024/03/15 03:11:20;;;;;;;8.83;3.07;;;7.10;99.90;;;8.01;100.00;97548.16;5003972;28;20444;-75
2024/03/15 03:13:49;;;;;;;3.90;2.90;;;7.10;99.90;;;7.97;100.00;97552.09;5014598;28;20471;-76
2024/03/15 03:16:21;;;;;;;4.77;2.80;;;7.10;99.90;;;7.93;100.00;97556.03;5014441;28;20494;-76
2024/03/15 03:18:52;;;;;;;6.83;3.00;;;7.00;99.90;;;7.90;100.00;97556.41;4990545;28;20517;-75
2024/03/15 03:21:21;;;;;;;7.37;2.80;;;7.00;99.90;;;7.91;100.00;97547.63;5001167;28;20475;-75
2024/03/15 03:23:56;;;;;;;4.00;2.60;;;7.10;99.90;;;7.91;100.00;97551.00;5013976;28;20582;-76
2024/03/15 03:26:25;;;;;;;3.30;2.63;;;7.00;99.90;;;7.88;100.00;97553.19;5001058;28;20458;-76
2024/03/15 03:28:56;;;;;;;5.27;3.00;;;7.00;99.90;;;7.82;100.00;97554.72;5002622;28;20475;-76
2024/03/15 03:31:24;;;;;;;6.00;2.80;;;6.90;99.90;;;7.80;100.00;97558.50;4988042;28;20535;-76
2024/03/15 03:33:53;;;;;;;4.47;3.27;;;6.90;99.90;;;7.82;100.00;97557.31;5014160;28;20464;-76
2024/03/15 03:36:20;;;;;;;3.20;2.73;;;7.00;99.90;;;7.79;100.00;97554.28;4986165;28;20546;-75
2024/03/15 03:38:49;;;;;;;7.10;3.13;;;7.00;99.90;;;7.72;100.00;97562.00;4998823;28;20522;-75
2024/03/15 03:41:19;;;;;;;6.83;2.97;;;6.80;99.90;;;7.70;100.00;97550.16;4998576;28;20940;-76
2024/03/15 03:43:47;;;;;;;5.40;3.17;;;6.80;99.90;;;7.66;100.00;97559.31;5000078;28;20510;-76
2024/03/15 03:46:18;;;;;;;6.27;3.00;;;6.80;99.90;;;7.63;100.00;97555.28;5011418;28;21010;-76
2024/03/15 03:48:46;;;;;;;5.97;3.10;;;6.80;99.90;;;7.65;100.00;97557.69;5000076;28;20476;-75
2024/03/15 03:51:15;;;;;;;5.83;3.67;;;6.80;99.90;;;7.67;100.00;97558.34;5014238;28;20456;-76
2024/03/15 03:53:44;;;;;;;4.37;3.60;;;6.80;99.90;;;7.63;100.00;97559.69;5002627;28;20506;-75
2024/03/15 03:56:13;;;;;;;9.17;3.00;;;6.70;99.90;;;7.54;100.00;97561.56;5012324;28;20871;-76
2024/03/15 03:58:41;;;;;;;6.03;3.13;;;6.70;99.90;;;7.44;100.00;97556.63;4986699;28;20518;-76
2024/03/15 04:01:10;;;;;;;6.00;3.87;;;6.50;99.90;;;7.54;100.00;97559.75;5013161;28;21525;-75
2024/03/15 04:03:41;;;;;;;4.73;3.30;;;6.60;99.90;;;7.47;100.00;97563.25;5002661;28;20935;-76
2024/03/15 04:06:09;;;;;;;5.33;3.30;;;6.60;99.90;;;7.46;100.00;97564.25;4987259;28;20464;-76
2024/03/15 04:08:38;;;;;;;4.20;3.13;;;6.50;99.90;;;7.43;100.00;97562.81;5002987;28;20553;-76
2024/03/15 04:11:06;;;;;;;6.47;3.60;;;6.50;99.90;;;7.39;100.00;97565.97;5016169;28;20566;-74
2024/03/15 04:13:35;;;;;;;7.33;3.93;;;6.50;99.90;;;7.35;100.00;97568.13;4998911;28;20465;-79
2024/03/15 04:16:04;;;;;;;5.33;4.13;;;6.50;99.90;;;7.39;100.00;97565.97;5003950;28;20458;-76
2024/03/15 04:18:34;;;;;;;5.37;3.60;;;6.50;99.90;;;7.33;100.00;97569.25;4995477;28;20487;-76
2024/03/15 04:21:03;;;;;;;7.30;4.00;;;6.40;99.90;;;7.31;100.00;97566.84;4986550;28;20463;-75
2024/03/15 04:23:32;;;;;;;13.87;4.57;;;6.40;99.90;;;7.38;100.00;97562.56;5001282;28;20490;-80
2024/03/15 04:26:02;;;;;;;11.00;4.50;;;6.50;99.90;;;7.28;100.00;97567.22;5014235;28;20934;-76
2024/03/15 04:28:31;;;;;;;8.57;4.13;;;6.40;99.90;;;7.32;100.00;97570.25;4985189;28;21197;-75
2024/03/15 04:30:59;;;;;;;6.60;4.20;;;6.40;99.90;;;7.28;100.00;97569.81;4996958;28;20447;-76
2024/03/15 04:33:28;;;;;;;5.83;3.90;;;6.40;99.90;;;7.23;100.00;97566.91;5015102;28;20463;-76
2024/03/15 04:35:58;;;;;;;9.63;3.90;;;6.40;99.90;;;7.28;100.00;97567.22;4998921;28;20467;-75
2024/03/15 04:38:27;;;;;;;5.70;4.30;;;6.40;99.90;;;7.28;100.00;97562.00;5000344;28;20470;-75
2024/03/15 04:40:55;;;;;;;7.63;4.40;;;6.40;99.90;;;7.34;100.00;97565.69;5012964;28;20545;-75
2024/03/15 04:43:24;;;;;;;13.60;7.87;;;6.50;99.90;;;7.28;100.00;97563.78;5001139;28;21102;-80
2024/03/15 04:45:53;;;;;;;7.57;4.33;;;6.50;99.90;;;7.31;100.00;97566.03;5011905;28;21054;-76
2024/03/15 04:48:22;;;;;;;8.23;4.30;;;6.50;99.90;;;7.36;100.00;97569.72;5002329;28;20461;-76
2024/03/15 04:50:51;;;;;;;7.07;3.90;;;6.50;99.90;;;7.40;100.00;97565.78;5000651;28;20524;-75
2024/03/15 04:53:19;;;;;;;14.33;4.97;;;6.70;99.90;;;7.45;100.00;97566.06;5010741;28;20461;-76
2024/03/15 04:55:48;;;;;;;13.23;4.80;;;6.70;99.90;;;7.43;100.00;97570.59;5000240;28;20467;-76
2024/03/15 04:58:16;;;;;;;6.90;4.67;;;6.60;99.90;;;7.43;100.00;97572.41;4998381;28;20463;-76
2024/03/15 05:00:45;;;;;;;11.90;6.00;;;6.60;99.90;;;7.37;100.00;97566.13;5006844;28;20475;-76
2024/03/15 05:03:14;;;;;;;8.87;5.07;;;6.50;99.90;;;7.39;100.00;97574.53;5008803;28;20466;-75
2024/03/15 05:05:47;;;;;;;7.30;4.43;;;6.50;99.90;;;7.39;100.00;97563.38;5012563;28;20808;-76
2024/03/15 05:08:16;;;;;;;11.83;5.30;;;6.50;99.90;;;7.29;100.00;97568.81;4997518;28;20471;-77
2024/03/15 05:10:45;;;;;;;7.60;4.43;;;6.40;99.90;;;7.31;100.00;97571.25;4989841;28;20495;-78
2024/03/15 05:13:13;;;;;;;9.43;4.50;;;6.50;99.90;;;7.31;100.00;97571.25;4984791;28;20467;-77
2024/03/15 05:15:42;;;;;;;6.77;4.30;;;6.40;99.90;;;7.31;100.00;97573.84;4997764;28;20497;-78
2024/03/15 05:18:11;;;;;;;7.57;4.00;;;6.40;99.90;;;7.39;100.00;97574.53;4972564;28;20507;-77
2024/03/15 05:20:41;;;;;;;6.10;3.90;;;6.50;99.90;;;7.44;100.00;97582.63;4997543;28;21040;-77
2024/03/15 05:23:10;;;;;;;8.27;4.57;;;6.60;99.90;;;7.44;100.00;97576.63;4966688;28;20551;-77
2024/03/15 05:25:40;;;;;;;7.80;4.40;;;6.60;99.90;;;7.44;100.00;97567.03;5002629;28;20541;-78
2024/03/15 05:28:09;;;;;;;6.57;4.47;;;6.60;99.90;;;7.52;100.00;97563.53;5013427;28;20497;-79
2024/03/15 05:30:38;;;;;;;10.53;5.00;;;6.70;99.90;;;7.58;100.00;97568.00;5016911;28;20513;-78
2024/03/15 05:33:07;;;;;;;10.10;4.20;;;6.70;99.90;;;7.55;100.00;97570.97;5001433;28;20488;-78
2024/03/15 05:35:37;;;;;;;15.83;4.57;;;6.70;99.90;;;7.54;100.00;97577.16;5013577;28;20463;-78
2024/03/15 05:38:06;;;;;;;7.03;4.60;;;6.70;99.90;;;7.59;100.00;97580.03;4998619;28;20571;-78
2024/03/15 05:40:35;;;;;;;7.17;4.60;;;6.70;99.90;;;7.63;100.00;97580.50;4997685;28;20460;-78
2024/03/15 05:43:04;;;;;;;7.90;4.30;;;6.80;99.90;;;7.68;100.00;97578.16;4995574;28;20586;-78
2024/03/15 05:45:32;;;;;;;12.63;5.20;;;6.90;99.90;;;7.73;100.00;97570.63;4998523;28;20510;-78
2024/03/15 05:48:01;;;;;;;8.43;5.03;;;7.00;99.90;;;7.77;100.00;97551.06;5004288;28;20456;-78
2024/03/15 05:50:32;;;;;;;7.60;5.23;;;7.00;99.90;;;7.79;100.00;97559.47;4999542;28;20464;-78
2024/03/15 05:53:01;;;;;;;8.60;5.27;;;7.00;99.90;;;7.73;100.00;97568.00;5004978;28;20554;-78
2024/03/15 05:55:31;;;;;;;8.13;5.70;;;6.90;99.90;;;7.75;100.00;97572.03;5033197;28;20469;-78
2024/03/15 05:58:02;;;;;;;7.23;4.60;;;6.90;99.90;;;7.76;100.00;97576.28;5020858;28;21001;-78
2024/03/15 06:00:33;;;;;;;9.10;5.23;;;7.00;99.90;;;7.85;100.00;97582.16;5001195;28;20892;-78
2024/03/15 06:03:05;;;;;;;8.17;5.10;;;7.10;99.90;;;7.93;100.00;97571.66;5004518;28;20554;-78
2024/03/15 06:05:34;;;;;;;8.03;5.00;;;7.20;99.90;;;8.00;100.00;97575.97;5016718;28;20498;-79
2024/03/15 06:08:03;;;;;;;10.90;5.27;;;7.20;99.90;;;8.05;100.00;97570.22;4992287;28;20469;-78
2024/03/15 06:10:32;;;;;;;8.70;4.53;;;7.20;99.90;;;8.01;100.00;97580.19;5005937;28;20465;-78
2024/03/15 06:13:00;;;;;;;7.83;4.60;;;7.20;99.90;;;8.00;100.00;97581.19;5002507;28;20858;-77
2024/03/15 06:15:29;;;;;;;6.50;4.63;;;7.20;99.90;;;8.00;100.00;97580.38;5016046;28;20564;-78
2024/03/15 06:17:58;;;;;;;6.20;4.70;;;7.20;99.90;;;8.04;100.00;97585.03;5004847;28;21051;-78
2024/03/15 06:20:27;;;;;;;17.90;5.20;;;7.10;99.90;;;8.09;100.00;97590.50;4989263;28;20999;-78
2024/03/15 06:22:56;;;;;;;9.73;4.67;;;7.30;99.90;;;8.17;100.00;97583.56;5004405;28;20476;-78
2024/03/15 06:25:25;;;;;;;7.60;5.10;;;7.40;99.90;;;8.25;100.00;97588.66;5018015;28;20497;-78
2024/03/15 06:27:54;;;;;;;14.40;5.40;;;7.40;99.90;;;8.29;100.00;97580.34;5015693;28;20457;-78
2024/03/15 06:30:23;;;;;;;7.90;5.00;;;7.50;99.90;;;8.31;100.00;97575.75;4991598;28;20470;-78
2024/03/15 06:32:57;;;;;;;8.37;5.27;;;7.40;99.90;;;8.37;100.00;97574.19;5005266;28;20465;-78
2024/03/15 06:35:28;;;;;;;8.70;4.90;;;7.50;99.90;;;8.39;100.00;97567.00;5016026;28;20550;-78
2024/03/15 06:38:07;;;;;;;9.70;5.80;;;7.60;99.90;;;8.45;100.00;97574.09;5017803;28;20545;-78
2024/03/15 06:40:56;;;;;;;11.40;5.83;;;7.70;99.90;;;8.55;100.00;97569.38;5003737;28;20968;-78
2024/03/15 06:43:40;;;;;;;11.83;5.50;;;7.80;99.90;;;8.62;100.00;97567.63;4981039;28;20480;-78
2024/03/15 06:46:12;;;;;;;13.20;5.93;;;7.80;99.90;;;8.68;100.00;97571.31;5001418;28;20500;-78
2024/03/15 06:48:55;;;;;;;11.43;5.80;;;7.90;99.90;;;8.72;100.00;97564.72;5020538;28;20461;-78
2024/03/15 06:54:26;;;;;;;8.47;5.67;;;7.90;99.90;;;8.82;100.00;97562.59;4981836;28;20861;-78
2024/03/15 06:56:55;;;;;;;9.30;5.83;;;8.00;99.90;;;8.89;100.00;97568.66;5003754;28;20532;-78
2024/03/15 06:59:24;;;;;;;10.10;5.83;;;8.10;99.90;;;8.95;100.00;97578.38;4981501;28;20461;-78
2024/03/15 07:01:56;;;;;;;10.77;5.97;;;8.20;99.90;;;8.99;100.00;97580.38;5007322;28;20462;-79
2024/03/15 07:04:26;;;;;;;9.83;5.67;;;8.20;99.90;;;9.02;100.00;97579.22;4990225;28;20991;-78
2024/03/15 07:06:54;;;;;;;9.83;5.50;;;8.30;99.90;;;9.09;100.00;97580.09;5019824;28;20857;-78
2024/03/15 07:09:23;;;;;;;7.83;5.17;;;8.30;99.90;;;9.13;100.00;97586.50;4988471;28;20491;-78
2024/03/15 07:11:52;;;;;;;12.90;6.50;;;8.40;99.90;;;9.19;100.00;97588.41;5001587;28;20866;-78
2024/03/15 07:14:22;;;;;;;15.40;6.70;;;8.40;99.90;;;9.25;100.00;97589.44;5002521;28;21306;-78
2024/03/15 07:16:50;;;;;;;11.03;6.00;;;8.50;99.90;;;9.27;100.00;97590.84;5005391;28;20468;-78
2024/03/15 07:19:20;;;;;;;10.17;6.30;;;8.50;99.90;;;9.33;100.00;97589.28;5006131;28;20476;-78
2024/03/15 07:21:48;;;;;;;13.17;5.70;;;8.60;99.90;;;9.37;100.00;97598.34;5018677;28;20956;-78
2024/03/15 07:24:17;;;;;;;11.90;6.00;;;8.60;99.90;;;9.41;100.00;97595.16;5017748;28;20466;-78
2024/03/15 07:26:46;;;;;;;8.57;6.37;;;8.70;99.90;;;9.43;100.00;97598.41;5003635;28;21037;-78
2024/03/15 07:29:15;;;;;;;13.13;7.40;;;8.80;99.90;;;9.47;100.00;97599.63;4998545;28;20473;-79
2024/03/15 07:31:43;;;;;;;14.60;6.93;;;8.80;99.90;;;9.53;100.00;97593.66;5000150;28;20475;-79
2024/03/15 07:34:13;;;;;;;14.43;8.17;;;8.80;99.90;;;9.60;100.00;97599.72;5015784;28;20470;-78
2024/03/15 07:36:42;;;;;;;13.90;7.10;;;8.90;99.90;;;9.65;100.00;97600.94;5017042;28;20509;-78
2024/03/15 07:39:11;;;;;;;11.03;6.40;;;9.00;99.90;;;9.70;100.00;97603.78;5004616;28;20473;-78
2024/03/15 07:41:40;;;;;;;10.77;6.87;;;9.00;99.90;;;9.75;100.00;97602.22;5004337;28;20467;-78
2024/03/15 07:44:09;;;;;;;10.60;6.50;;;9.00;99.90;;;9.78;100.00;97601.81;5000452;28;21531;-79
2024/03/15 07:46:38;;;;;;;9.23;6.50;;;9.10;99.90;;;9.85;100.00;97599.25;5014580;28;20996;-79
2024/03/15 07:49:08;;;;;;;11.10;7.10;;;9.20;99.90;;;9.90;100.00;97605.50;5000025;28;20462;-79
2024/03/15 07:51:38;;;;;;;13.43;7.00;;;9.30;99.90;;;9.96;100.00;97594.25;5002631;28;20447;-79
2024/03/15 07:54:07;;;;;;;15.97;7.10;;;9.30;99.90;;;10.01;100.00;97598.91;4986859;28;20918;-78
2024/03/15 07:56:36;;;;;;;9.63;6.00;;;9.30;99.90;;;10.06;100.00;97599.16;5000646;28;20560;-78
2024/03/15 07:59:05;;;;;;;6.50;4.93;;;9.40;99.90;;;10.08;100.00;97602.34;5005325;28;20467;-78
2024/03/15 08:01:34;;;;;;;11.87;5.67;;;9.40;99.90;;;10.12;100.00;97603.59;5002980;28;20475;-79
2024/03/15 08:04:03;;;;;;;4.40;3.80;;;9.40;99.90;;;10.15;100.00;97608.44;5003471;28;20467;-79
2024/03/15 08:06:33;;;;;;;10.23;6.23;;;9.60;99.90;;;10.20;100.00;97606.06;4996572;28;20498;-78
2024/03/15 08:09:04;;;;;;;8.33;5.30;;;9.60;99.90;;;10.24;100.00;97601.25;5002863;28;20944;-79
2024/03/15 08:11:34;;;;;;;4.40;3.80;;;9.60;99.90;;;10.28;100.00;97603.25;4999774;28;20526;-79
2024/03/15 08:14:05;;;;;;;8.53;6.40;;;9.70;99.90;;;10.30;100.00;97597.84;4986328;28;20465;-78
2024/03/15 08:16:34;;;;;;;5.43;4.37;;;9.70;99.90;;;10.34;100.00;97607.72;5016005;28;20481;-78
2024/03/15 08:19:04;;;;;;;5.30;3.90;;;9.70;99.90;;;10.39;100.00;97594.88;4973308;28;20464;-79
2024/03/15 08:21:33;;;;;;;5.00;3.70;;;9.80;99.90;;;10.43;100.00;97598.69;4999012;28;20496;-78
2024/03/15 08:24:04;;;;;;;5.70;4.37;;;9.80;99.90;;;10.49;100.00;97602.31;4997176;28;20552;-78
2024/03/15 08:26:32;;;;;;;4.90;3.70;;;9.90;99.90;;;10.52;100.00;97605.34;5001616;28;20530;-78
2024/03/15 08:29:01;;;;;;;5.10;4.40;;;10.00;99.90;;;10.57;100.00;97602.97;4986900;28;20945;-78
2024/03/15 08:31:30;;;;;;;3.67;3.27;;;10.00;99.90;;;10.60;100.00;97602.56;5013653;28;20456;-78
2024/03/15 08:34:02;;;;;;;6.63;3.73;;;10.10;99.90;;;10.65;100.00;97603.78;5012625;28;20560;-78
2024/03/15 08:36:35;;;;;;;3.87;3.17;;;10.10;99.90;;;10.68;100.00;97600.78;5014922;28;21246;-78
2024/03/15 08:39:04;;;;;;;5.80;3.73;;;10.10;99.90;;;10.72;100.00;97602.81;5000728;28;20460;-78
2024/03/15 08:41:33;;;;;;;4.30;3.60;;;10.10;99.90;;;10.75;100.00;97599.78;5004390;28;20468;-78
2024/03/15 08:44:03;;;;;;;4.20;3.27;;;10.10;99.90;;;10.79;100.00;97595.78;5003421;28;20478;-78
2024/03/15 08:46:31;;;;;;;5.90;3.47;;;10.10;99.90;;;10.85;100.00;97609.84;5001884;28;20497;-78
2024/03/15 08:49:01;;;;;;;3.43;3.07;;;10.20;99.90;;;10.89;100.00;97606.66;5014611;28;20470;-78
2024/03/15 08:51:30;;;;;;;6.67;3.30;;;10.20;99.90;;;10.91;100.00;97604.63;5018144;28;20600;-78
2024/03/15 08:53:59;;;;;;;3.07;2.77;;;10.30;99.90;;;10.94;100.00;97608.63;5001417;28;20543;-78
2024/03/15 08:56:27;;;;;;;4.70;2.53;;;10.40;99.90;;;10.95;100.00;97610.25;5017104;28;20461;-78
2024/03/15 08:58:58;;;;;;;3.57;2.70;;;10.40;99.90;;;10.99;100.00;97620.13;5002105;28;20458;-78
2024/03/15 09:01:32;;;;;;;3.57;2.83;;;10.40;99.90;;;10.99;100.00;97620.13;5015859;28;20492;-78
2024/03/15 09:04:04;;;;;;;3.57;2.90;;;10.40;99.90;;;11.02;100.00;97622.34;4988890;28;20547;-78
2024/03/15 09:06:34;;;;;;;3.20;2.80;;;10.40;99.90;;;11.07;100.00;97619.16;5002736;28;20979;-78
2024/03/15 09:09:08;;;;;;;3.33;3.03;;;10.40;99.90;;;11.08;100.00;97620.72;4990164;28;20525;-78
2024/03/15 09:11:37;;;;;;;2.87;2.57;;;10.50;99.90;;;11.10;100.00;97618.72;4996896;28;20479;-78
2024/03/15 09:14:06;;;;;;;3.40;2.80;;;10.50;99.90;;;11.14;100.00;97617.34;5002951;28;20522;-78
2024/03/15 09:16:35;;;;;;;3.00;2.63;;;10.60;99.90;;;11.16;100.00;97620.53;4987233;28;20467;-78
2024/03/15 09:19:05;;;;;;;2.50;2.30;;;10.60;99.90;;;11.17;100.00;97623.97;5001447;28;20470;-79
2024/03/15 09:21:35;;;;;;;2.27;2.10;;;10.50;99.90;;;11.22;100.00;97621.53;5001220;28;20551;-78
2024/03/15 09:24:04;;;;;;;4.50;2.97;;;10.50;99.90;;;11.25;100.00;97616.72;5002530;28;20454;-78
2024/03/15 09:26:33;;;;;;;3.33;2.70;;;10.60;99.90;;;11.28;100.00;97618.13;5007006;28;20504;-78
2024/03/15 09:29:02;;;;;;;2.53;2.33;;;10.70;99.90;;;11.30;100.00;97618.72;4992451;28;20885;-78
2024/03/15 09:31:35;;;;;;;2.30;2.10;;;10.60;99.90;;;11.32;100.00;97617.50;5005955;28;20482;-78
2024/03/15 09:34:24;;;;;;;3.17;2.70;;;10.70;99.90;;;11.36;100.00;97617.91;4992847;28;20462;-78
2024/03/15 09:36:52;;;;;;;2.20;2.00;;;10.70;99.90;;;11.37;100.00;97617.72;5019470;28;20983;-79
2024/03/15 09:39:22;;;;;;;2.70;2.37;;;10.60;99.90;;;11.42;100.00;97623.16;5004786;28;20550;-78
2024/03/15 09:41:52;;;;;;;2.90;2.20;;;10.80;99.90;;;11.45;100.00;97625.34;5022075;28;20468;-78
2024/03/15 09:44:21;;;;;;;2.20;2.00;;;10.80;99.90;;;11.49;100.00;97618.72;5003318;28;20475;-78
2024/03/15 09:46:49;;;;;;;2.43;2.20;;;10.90;99.90;;;11.51;100.00;97621.94;4991358;28;20501;-78
2024/03/15 09:49:18;;;;;;;2.70;2.20;;;10.90;99.90;;;11.54;100.00;97623.34;5004161;28;20467;-78
2024/03/15 09:51:47;;;;;;;2.43;2.20;;;10.90;99.90;;;11.55;100.00;97620.53;4990324;28;20473;-78
2024/03/15 09:54:16;;;;;;;2.63;2.10;;;10.90;99.90;;;11.55;100.00;97623.16;5003219;28;20477;-78
2024/03/15 09:56:45;;;;;;;1.80;1.70;;;10.90;99.90;;;11.53;100.00;97625.16;4991450;28;20470;-78
2024/03/15 09:59:15;;;;;;;2.77;2.10;;;10.80;99.90;;;11.54;100.00;97618.91;5006599;28;20462;-78
2024/03/15 10:01:43;;;;;;;3.10;2.10;;;10.80;99.90;;;11.59;100.00;97618.31;5002500;28;20526;-78
2024/03/15 10:04:12;;;;;;;4.10;2.63;;;10.90;99.90;;;11.65;100.00;97619.31;5016737;28;20467;-78
2024/03/15 10:06:41;;;;;;;2.20;2.00;;;10.90;99.90;;;11.65;100.00;97616.69;5002589;28;20493;-78
2024/03/15 10:09:12;;;;;;;8.23;2.80;;;10.90;99.90;;;11.68;100.00;97618.88;4990498;28;21047;-78
2024/03/15 10:11:42;;;;;;;2.27;2.07;;;11.00;99.90;;;11.67;100.00;97622.50;5005826;28;20475;-78
2024/03/15 10:14:10;;;;;;;2.30;2.10;;;10.90;99.90;;;11.70;100.00;97622.91;5001014;28;20495;-78
2024/03/15 10:16:39;;;;;;;2.00;1.80;;;11.10;99.90;;;11.73;100.00;97624.38;5006449;28;20550;-78
2024/03/15 10:19:07;;;;;;;2.07;1.70;;;11.10;99.90;;;11.69;100.00;97626.56;4999362;28;20525;-78
2024/03/15 10:21:36;;;;;;;2.13;1.97;;;11.10;99.90;;;11.72;100.00;97622.75;5002419;28;20553;-78
2024/03/15 10:24:05;;;;;;;2.10;1.90;;;11.10;99.90;;;11.75;100.00;97617.91;5007535;28;20598;-78
2024/03/15 10:26:40;;;;;;;1.90;1.80;;;11.10;99.90;;;11.77;100.00;97630.78;4998730;28;20520;-79
2024/03/15 10:29:10;;;;;;;2.90;2.43;;;11.00;99.90;;;11.77;100.00;97623.72;4989556;28;20512;-77
2024/03/15 10:31:39;;;;;;;2.60;1.93;;;11.10;99.90;;;11.80;100.00;97630.41;5003189;28;20468;-78
2024/03/15 10:34:08;;;;;;;2.43;2.10;;;11.10;99.90;;;11.81;100.00;97632.00;5005003;28;20497;-78